Time;durP1;ratioP1;P1;durP2;ratioP2;P2;SDS_P1;SDS_P2;PMS_P1;PMS_P2;Temp;Humidity;BMP_temperature;BMP_pressure;BME280_temperature;BME280_humidity;BME280_pressure;Samples;Min_cycle;Max_cycle;Signal;HPM_P1;HPM_P2
2021/06/22 01:54:59;;;;;;;5.10;3.40;;;19.10;99.90;;;;;;5954974;22;20377;-64
2021/06/22 01:57:26;;;;;;;3.80;3.43;;;19.10;99.90;;;;;;4976018;28;20976;-65
2021/06/22 01:59:53;;;;;;;4.47;3.87;;;19.10;99.90;;;;;;4975954;28;20442;-65
2021/06/22 02:02:20;;;;;;;4.07;3.57;;;19.20;99.90;;;;;;4976170;28;20439;-65
2021/06/22 02:04:47;;;;;;;4.33;3.87;;;19.20;99.90;;;;;;4976673;28;20441;-65
2021/06/22 02:07:14;;;;;;;5.03;4.53;;;19.10;99.90;;;;;;4976557;28;20440;-65
2021/06/22 02:09:41;;;;;;;3.50;3.23;;;19.00;99.90;;;;;;4987915;28;20447;-65
2021/06/22 02:12:10;;;;;;;3.93;3.63;;;19.10;99.90;;;;;;4997815;28;20467;-65
2021/06/22 02:14:37;;;;;;;4.60;4.30;;;19.10;99.90;;;;;;4998117;28;20435;-65
2021/06/22 02:17:04;;;;;;;3.57;3.37;;;19.00;99.90;;;;;;4991718;28;20558;-65
2021/06/22 02:19:31;;;;;;;4.20;3.90;;;19.00;99.90;;;;;;4980845;28;20442;-65
2021/06/22 02:21:57;;;;;;;4.60;4.20;;;19.00;99.90;;;;;;4980023;28;20454;-65
2021/06/22 02:24:24;;;;;;;4.60;4.30;;;19.00;99.90;;;;;;4977214;28;20465;-65
2021/06/22 02:26:51;;;;;;;5.70;4.07;;;19.00;99.90;;;;;;4980144;28;20471;-65
2021/06/22 02:29:19;;;;;;;4.07;3.77;;;19.10;99.90;;;;;;4988030;28;20489;-65
2021/06/22 02:31:46;;;;;;;6.90;4.53;;;19.00;99.90;;;;;;4992107;28;20467;-65
2021/06/22 02:34:12;;;;;;;4.33;3.93;;;19.10;99.90;;;;;;4985963;28;20454;-65
2021/06/22 02:36:39;;;;;;;6.33;4.20;;;19.10;99.90;;;;;;4988294;28;20474;-65
2021/06/22 02:39:06;;;;;;;4.20;3.90;;;19.10;99.90;;;;;;4985539;28;20447;-65
2021/06/22 02:41:33;;;;;;;4.17;3.87;;;19.10;99.90;;;;;;4976852;28;20481;-65
2021/06/22 02:43:59;;;;;;;4.30;3.90;;;19.20;99.90;;;;;;4976437;28;20964;-65
2021/06/22 02:46:27;;;;;;;4.67;4.20;;;19.30;99.90;;;;;;4975849;28;20874;-64
2021/06/22 02:48:54;;;;;;;4.77;4.37;;;19.30;99.90;;;;;;4975697;28;20466;-65
2021/06/22 02:51:21;;;;;;;4.60;4.30;;;19.20;99.90;;;;;;4976366;28;20462;-70
2021/06/22 02:53:48;;;;;;;4.13;3.83;;;19.30;99.90;;;;;;4976625;28;20466;-65
2021/06/22 02:56:15;;;;;;;4.67;4.03;;;19.20;99.90;;;;;;4995349;28;20473;-65
2021/06/22 02:58:41;;;;;;;4.03;3.63;;;19.20;99.90;;;;;;4998930;28;20450;-65
2021/06/22 03:01:08;;;;;;;4.90;4.43;;;19.30;99.90;;;;;;4999454;28;20456;-65
2021/06/22 03:03:36;;;;;;;6.30;3.80;;;19.30;99.90;;;;;;4991850;28;20457;-65
2021/06/22 03:06:03;;;;;;;4.17;3.93;;;19.30;99.90;;;;;;4980150;28;20984;-65
2021/06/22 03:08:30;;;;;;;4.83;4.50;;;19.30;99.90;;;;;;4981299;28;20458;-64
2021/06/22 03:10:56;;;;;;;6.63;3.63;;;19.20;99.90;;;;;;5001211;28;20474;-65
2021/06/22 03:13:23;;;;;;;5.00;4.33;;;19.20;99.90;;;;;;5000972;28;20454;-65
2021/06/22 03:15:50;;;;;;;5.30;4.77;;;19.30;99.90;;;;;;5000623;28;20467;-65
2021/06/22 03:18:16;;;;;;;4.13;3.83;;;19.20;99.90;;;;;;4995417;28;20454;-65
2021/06/22 03:20:44;;;;;;;4.20;3.90;;;19.30;99.90;;;;;;4979926;28;20796;-65
2021/06/22 03:23:11;;;;;;;5.10;4.13;;;19.30;99.90;;;;;;4979305;28;20462;-65
2021/06/22 03:25:38;;;;;;;4.20;3.90;;;19.30;99.90;;;;;;4979215;28;20485;-65
2021/06/22 03:28:05;;;;;;;5.90;4.10;;;19.30;99.90;;;;;;4978931;28;20798;-65
2021/06/22 03:30:32;;;;;;;4.33;4.13;;;19.40;99.90;;;;;;4978973;28;20865;-64
2021/06/22 03:32:59;;;;;;;4.00;3.63;;;19.40;99.90;;;;;;4979257;28;20454;-65
2021/06/22 03:35:28;;;;;;;5.67;3.97;;;19.40;99.90;;;;;;4981179;28;20989;-65
2021/06/22 03:37:56;;;;;;;5.03;4.47;;;19.40;99.90;;;;;;4981131;28;20463;-65
2021/06/22 03:40:23;;;;;;;4.80;4.50;;;19.50;99.90;;;;;;4980992;28;20451;-65
2021/06/22 03:42:50;;;;;;;7.77;5.30;;;19.40;99.90;;;;;;4979681;28;20462;-65
2021/06/22 03:45:17;;;;;;;12.43;5.20;;;19.40;99.90;;;;;;4979073;28;20474;-63
2021/06/22 03:47:44;;;;;;;6.60;5.80;;;19.40;99.90;;;;;;4979651;28;20458;-65
2021/06/22 03:50:13;;;;;;;6.47;5.07;;;19.40;99.90;;;;;;4979291;28;20989;-65
2021/06/22 03:52:39;;;;;;;6.83;5.80;;;19.40;99.90;;;;;;4989179;28;20454;-65
2021/06/22 03:57:49;;;;;;;6.63;5.10;;;19.40;99.90;;;;;;4999921;28;20443;-65
2021/06/22 04:00:17;;;;;;;6.93;5.53;;;19.40;99.90;;;;;;5000059;28;20447;-65
2021/06/22 04:02:44;;;;;;;8.70;5.57;;;19.40;99.90;;;;;;5000602;28;20435;-65
2021/06/22 04:05:11;;;;;;;8.30;6.00;;;19.20;99.90;;;;;;4991289;28;20509;-65
2021/06/22 04:07:38;;;;;;;7.50;6.00;;;19.10;99.90;;;;;;4980343;28;20458;-64
2021/06/22 04:10:08;;;;;;;8.23;6.50;;;19.10;99.90;;;;;;4980763;28;20480;-64
2021/06/22 04:12:35;;;;;;;6.40;5.90;;;19.10;99.90;;;;;;4979338;28;20868;-65
2021/06/22 04:15:02;;;;;;;6.40;5.80;;;19.10;99.90;;;;;;4979192;28;20475;-65
2021/06/22 04:17:28;;;;;;;6.97;5.47;;;19.20;99.90;;;;;;4978444;28;20461;-65
2021/06/22 04:19:55;;;;;;;7.80;7.00;;;19.30;99.90;;;;;;4978040;28;20462;-65
2021/06/22 04:22:22;;;;;;;7.77;7.17;;;19.30;99.90;;;;;;4977876;28;20459;-65
2021/06/22 04:24:48;;;;;;;8.13;7.30;;;19.30;99.90;;;;;;4977124;28;20462;-65
2021/06/22 04:27:16;;;;;;;7.97;7.27;;;19.10;99.90;;;;;;4977480;28;20455;-65
2021/06/22 04:29:43;;;;;;;8.50;7.70;;;19.20;99.90;;;;;;4977167;28;21020;-65
2021/06/22 04:32:10;;;;;;;8.00;7.10;;;19.30;99.90;;;;;;4977632;28;20980;-65
2021/06/22 04:34:37;;;;;;;9.30;7.63;;;19.40;99.90;;;;;;4978174;28;20535;-65
2021/06/22 04:37:04;;;;;;;8.00;7.20;;;19.40;99.90;;;;;;4976911;28;20890;-65
2021/06/22 04:39:31;;;;;;;7.70;7.07;;;19.30;99.90;;;;;;4977245;28;20517;-65
2021/06/22 04:41:57;;;;;;;9.57;8.57;;;19.40;99.90;;;;;;4977117;28;20969;-65
2021/06/22 04:44:25;;;;;;;9.03;8.13;;;19.50;99.90;;;;;;4977351;28;20459;-65
2021/06/22 04:46:52;;;;;;;8.40;7.50;;;19.60;99.90;;;;;;4976575;28;20478;-65
2021/06/22 04:49:19;;;;;;;8.40;7.70;;;19.60;99.90;;;;;;4977092;28;20461;-65
2021/06/22 04:51:45;;;;;;;9.53;8.00;;;19.60;99.90;;;;;;4976949;28;20454;-65
2021/06/22 04:54:12;;;;;;;12.10;11.13;;;19.50;99.90;;;;;;4977036;28;20458;-65
2021/06/22 04:56:39;;;;;;;12.40;11.30;;;19.50;99.90;;;;;;4976460;28;20892;-64
2021/06/22 04:59:06;;;;;;;12.37;11.40;;;19.50;99.90;;;;;;4976875;28;20938;-64
2021/06/22 05:01:34;;;;;;;12.67;11.50;;;19.50;99.90;;;;;;4977036;28;20446;-64
2021/06/22 05:04:01;;;;;;;17.50;14.37;;;19.50;99.90;;;;;;4977739;28;20435;-62
2021/06/22 05:06:28;;;;;;;14.90;13.57;;;19.60;99.90;;;;;;4976713;28;20501;-61
2021/06/22 05:08:55;;;;;;;16.30;14.67;;;19.80;99.90;;;;;;4977006;28;20450;-65
2021/06/22 05:11:21;;;;;;;18.63;16.70;;;20.00;99.90;;;;;;4976568;28;20881;-63
2021/06/22 05:13:48;;;;;;;18.80;16.23;;;20.10;99.90;;;;;;4976727;28;20465;-65
2021/06/22 05:16:17;;;;;;;18.10;16.27;;;20.10;99.90;;;;;;4976477;28;20521;-65
2021/06/22 05:18:48;;;;;;;18.53;15.40;;;20.30;99.90;;;;;;4976455;28;20466;-64
2021/06/22 05:21:14;;;;;;;18.67;16.87;;;20.40;99.90;;;;;;4977628;28;20509;-65
2021/06/22 05:23:41;;;;;;;18.97;17.20;;;20.50;99.90;;;;;;4977093;28;20461;-65
2021/06/22 05:26:08;;;;;;;18.47;16.57;;;20.50;99.90;;;;;;4976859;28;20486;-65
2021/06/22 05:28:35;;;;;;;20.23;18.40;;;20.50;99.90;;;;;;4976765;28;20954;-64
2021/06/22 05:31:02;;;;;;;23.90;21.70;;;20.50;99.90;;;;;;4976569;28;20478;-63
2021/06/22 05:33:28;;;;;;;22.50;20.30;;;20.40;99.90;;;;;;4976448;28;20458;-64
2021/06/22 05:35:57;;;;;;;21.63;19.40;;;20.40;99.90;;;;;;4976530;28;20474;-63
2021/06/22 05:38:23;;;;;;;23.60;21.50;;;20.30;99.90;;;;;;4986632;28;20459;-64
2021/06/22 05:40:50;;;;;;;25.00;22.53;;;20.10;99.90;;;;;;4981390;28;20447;-63
2021/06/22 05:43:17;;;;;;;26.53;21.83;;;20.10;99.90;;;;;;4976467;28;20459;-63
2021/06/22 05:45:43;;;;;;;23.63;21.57;;;20.10;99.90;;;;;;4976120;28;20475;-63
2021/06/22 05:48:10;;;;;;;23.40;18.30;;;20.10;99.90;;;;;;4977165;28;20461;-63
2021/06/22 05:50:37;;;;;;;22.80;20.80;;;20.20;99.90;;;;;;4976863;28;20477;-63
2021/06/22 05:53:05;;;;;;;20.67;18.77;;;20.30;99.90;;;;;;4976484;28;20439;-63
2021/06/22 05:55:32;;;;;;;22.53;20.23;;;20.40;99.90;;;;;;4976587;28;20509;-63
2021/06/22 05:58:00;;;;;;;20.60;18.97;;;20.40;99.90;;;;;;4976992;28;20458;-63
2021/06/22 06:00:27;;;;;;;19.53;17.93;;;20.40;99.90;;;;;;4976776;28;20454;-64
2021/06/22 06:02:54;;;;;;;20.23;17.90;;;20.50;99.90;;;;;;4976903;28;20494;-65
2021/06/22 06:05:23;;;;;;;21.20;19.23;;;20.50;99.90;;;;;;4985692;28;20558;-65
2021/06/22 06:07:50;;;;;;;20.40;18.57;;;20.40;99.90;;;;;;4999339;28;20446;-66
2021/06/22 06:10:19;;;;;;;20.67;18.80;;;20.50;99.90;;;;;;4999360;28;20470;-65
2021/06/22 06:12:46;;;;;;;20.07;18.13;;;20.50;99.90;;;;;;4999449;28;20422;-64
2021/06/22 06:15:15;;;;;;;19.00;17.00;;;20.50;99.90;;;;;;4999146;28;20463;-64
2021/06/22 06:17:42;;;;;;;17.70;16.10;;;20.60;99.90;;;;;;4978093;28;20517;-64
2021/06/22 06:20:12;;;;;;;18.17;16.37;;;20.80;99.90;;;;;;4977983;28;20455;-64
2021/06/22 06:22:40;;;;;;;17.43;15.90;;;20.90;99.90;;;;;;4977764;28;20907;-64
2021/06/22 06:25:09;;;;;;;17.50;16.13;;;20.90;99.90;;;;;;4977599;28;20479;-64
2021/06/22 06:27:44;;;;;;;16.53;15.33;;;20.90;99.90;;;;;;4980311;28;20443;-64
2021/06/22 06:30:13;;;;;;;17.27;15.47;;;21.10;99.90;;;;;;4977565;28;20481;-64
2021/06/22 06:32:40;;;;;;;16.10;14.90;;;21.20;99.90;;;;;;4977697;28;20450;-64
2021/06/22 06:35:08;;;;;;;18.90;15.03;;;21.40;99.90;;;;;;4976982;28;20481;-64
2021/06/22 06:37:35;;;;;;;17.80;16.00;;;21.40;99.90;;;;;;4977521;28;20443;-64
2021/06/22 06:40:01;;;;;;;15.27;14.10;;;21.30;99.90;;;;;;4977391;28;20465;-64
2021/06/22 06:42:28;;;;;;;18.07;16.30;;;21.20;99.90;;;;;;4977072;28;20946;-64
2021/06/22 06:44:56;;;;;;;16.50;15.00;;;21.30;99.90;;;;;;4976912;28;20477;-64
2021/06/22 06:47:23;;;;;;;16.37;14.87;;;21.30;99.90;;;;;;4977224;28;20439;-65
2021/06/22 06:49:50;;;;;;;16.57;15.03;;;21.30;99.90;;;;;;4976648;28;20463;-65
2021/06/22 06:52:17;;;;;;;16.53;14.87;;;21.50;99.90;;;;;;4977725;28;20478;-65
2021/06/22 06:54:43;;;;;;;16.83;15.43;;;21.50;99.90;;;;;;4979317;28;20454;-63
2021/06/22 06:57:10;;;;;;;15.63;14.30;;;21.40;99.90;;;;;;4982743;28;20439;-65
2021/06/22 06:59:37;;;;;;;16.83;15.23;;;21.60;99.90;;;;;;4977044;28;20457;-63
2021/06/22 07:02:05;;;;;;;17.67;16.10;;;21.60;99.90;;;;;;4976810;28;20462;-64
2021/06/22 07:04:33;;;;;;;15.70;14.40;;;21.60;99.90;;;;;;4979062;28;20450;-65
2021/06/22 07:07:00;;;;;;;14.47;13.47;;;21.70;99.90;;;;;;4976701;28;20573;-65
2021/06/22 07:09:27;;;;;;;16.53;15.07;;;21.80;99.90;;;;;;4976645;28;20455;-65
2021/06/22 07:11:56;;;;;;;15.10;13.97;;;21.80;99.90;;;;;;4983235;28;20537;-65
2021/06/22 07:14:22;;;;;;;16.07;14.53;;;21.80;99.90;;;;;;4980564;28;20800;-65
2021/06/22 07:16:49;;;;;;;14.40;13.17;;;21.80;99.90;;;;;;4982559;28;20475;-65
2021/06/22 07:19:18;;;;;;;14.70;13.60;;;22.00;99.90;;;;;;4981945;28;20459;-65
2021/06/22 07:21:45;;;;;;;13.97;12.83;;;22.00;99.90;;;;;;4979873;28;20454;-65
2021/06/22 07:24:11;;;;;;;15.23;13.73;;;22.00;99.90;;;;;;4984683;28;20478;-65
2021/06/22 07:26:39;;;;;;;15.20;14.00;;;22.20;99.90;;;;;;4994884;28;20470;-66
2021/06/22 07:29:07;;;;;;;16.50;13.80;;;22.20;99.90;;;;;;4981038;28;20454;-65
2021/06/22 07:31:34;;;;;;;14.60;13.20;;;22.20;99.90;;;;;;4977125;28;20479;-65
2021/06/22 07:34:00;;;;;;;14.87;13.43;;;22.30;99.90;;;;;;4976035;28;20461;-65
2021/06/22 07:36:28;;;;;;;13.77;12.57;;;22.40;99.90;;;;;;4976151;28;20478;-66
2021/06/22 07:38:55;;;;;;;13.77;12.63;;;22.50;99.90;;;;;;4978984;28;20454;-64
2021/06/22 07:41:22;;;;;;;13.27;12.23;;;22.70;99.90;;;;;;4976648;28;20501;-64
2021/06/22 07:43:49;;;;;;;11.83;10.83;;;22.70;99.90;;;;;;4979312;28;20549;-64
2021/06/22 07:46:17;;;;;;;14.27;9.47;;;23.40;99.90;;;;;;4978794;28;20857;-63
2021/06/22 07:48:44;;;;;;;9.57;8.93;;;23.90;99.90;;;;;;4979397;28;20481;-64
2021/06/22 07:51:11;;;;;;;12.83;11.23;;;24.50;99.90;;;;;;4977952;28;20470;-64
2021/06/22 07:53:39;;;;;;;19.57;11.67;;;24.60;99.90;;;;;;4978591;28;20458;-65
2021/06/22 07:56:06;;;;;;;11.47;10.47;;;24.70;99.90;;;;;;4978296;28;20490;-65
2021/06/22 07:58:33;;;;;;;10.90;9.90;;;24.80;99.90;;;;;;4977880;28;20462;-64
2021/06/22 08:01:00;;;;;;;11.27;9.90;;;24.90;99.90;;;;;;4978275;28;20474;-64
2021/06/22 08:03:27;;;;;;;12.13;10.90;;;24.60;99.90;;;;;;4978119;28;20455;-65
2021/06/22 08:05:54;;;;;;;12.47;11.27;;;24.70;99.90;;;;;;4977706;28;20471;-64
2021/06/22 08:08:22;;;;;;;9.67;8.97;;;24.70;99.90;;;;;;4977796;28;20513;-64
2021/06/22 08:10:52;;;;;;;11.97;10.97;;;24.80;99.90;;;;;;4978625;28;20474;-64
2021/06/22 08:13:19;;;;;;;10.23;9.13;;;25.00;99.90;;;;;;4978630;28;20546;-64
2021/06/22 08:15:46;;;;;;;11.60;10.47;;;25.10;99.90;;;;;;4978304;28;20474;-64
2021/06/22 08:18:13;;;;;;;12.00;10.80;;;25.30;99.90;;;;;;4978545;28;20466;-64
2021/06/22 08:20:40;;;;;;;11.30;10.10;;;25.20;99.90;;;;;;4979052;28;20455;-64
2021/06/22 08:23:08;;;;;;;10.97;10.03;;;25.10;99.90;;;;;;4979271;28;20466;-64
2021/06/22 08:25:35;;;;;;;12.00;11.00;;;25.00;99.90;;;;;;4978576;28;20485;-64
2021/06/22 08:28:04;;;;;;;10.50;9.43;;;24.80;99.90;;;;;;4977970;28;20942;-64
2021/06/22 08:30:31;;;;;;;10.50;9.47;;;24.80;99.90;;;;;;4978094;28;20459;-64
2021/06/22 08:32:58;;;;;;;11.27;10.07;;;24.60;99.90;;;;;;4978091;28;20461;-65
2021/06/22 08:35:25;;;;;;;10.70;10.00;;;24.60;99.90;;;;;;4977804;28;20482;-65
2021/06/22 08:37:52;;;;;;;10.90;10.00;;;24.50;99.90;;;;;;4977890;28;20509;-65
2021/06/22 08:40:19;;;;;;;11.53;10.70;;;24.40;99.90;;;;;;4978277;28;20459;-65
2021/06/22 08:42:46;;;;;;;9.77;8.90;;;24.30;99.90;;;;;;4978112;28;20451;-65
2021/06/22 08:45:16;;;;;;;8.57;7.87;;;24.20;99.90;;;;;;4986522;28;20478;-65
2021/06/22 08:47:43;;;;;;;9.23;8.63;;;24.20;99.90;;;;;;4991423;28;20452;-65
2021/06/22 08:50:12;;;;;;;9.93;9.13;;;24.10;99.90;;;;;;4978548;28;20498;-65
2021/06/22 08:52:39;;;;;;;10.67;9.73;;;24.00;99.90;;;;;;4976438;28;20483;-66
2021/06/22 08:55:07;;;;;;;9.50;8.60;;;23.90;99.90;;;;;;4977517;28;20482;-66
2021/06/22 08:57:35;;;;;;;10.90;10.00;;;23.90;99.90;;;;;;4995613;28;20465;-66
2021/06/22 09:00:04;;;;;;;10.90;9.90;;;23.80;99.90;;;;;;4977356;28;20459;-66
2021/06/22 09:02:34;;;;;;;8.83;8.23;;;23.60;99.90;;;;;;4977814;28;20455;-66
2021/06/22 09:05:00;;;;;;;12.10;11.10;;;23.60;99.90;;;;;;4977661;28;20461;-66
2021/06/22 09:07:44;;;;;;;10.50;9.63;;;23.50;99.90;;;;;;4978543;28;20458;-66
2021/06/22 09:10:20;;;;;;;11.03;10.23;;;23.30;99.90;;;;;;4977759;28;20454;-66
2021/06/22 09:12:47;;;;;;;12.57;11.60;;;23.30;99.90;;;;;;4978541;28;20497;-66
2021/06/22 09:15:18;;;;;;;12.40;11.43;;;23.30;99.90;;;;;;4977458;28;21019;-66
2021/06/22 09:17:48;;;;;;;14.70;13.50;;;23.30;99.90;;;;;;4999117;28;20531;-66
2021/06/22 09:20:15;;;;;;;17.03;15.47;;;23.30;99.90;;;;;;5000190;28;20427;-66
2021/06/22 09:22:42;;;;;;;14.40;13.17;;;23.00;99.90;;;;;;4999289;28;20445;-66
2021/06/22 09:25:12;;;;;;;13.10;11.90;;;22.70;99.90;;;;;;4998929;28;20965;-67
2021/06/22 09:27:49;;;;;;;12.53;11.53;;;22.60;99.90;;;;;;4983844;28;20451;-67
2021/06/22 09:30:17;;;;;;;12.30;11.27;;;22.60;99.90;;;;;;4977740;28;20954;-67
2021/06/22 09:32:45;;;;;;;11.40;10.60;;;22.50;99.90;;;;;;4977084;28;20477;-67
2021/06/22 09:35:20;;;;;;;11.87;11.07;;;22.50;99.90;;;;;;4978345;28;20485;-68
2021/06/22 09:37:51;;;;;;;14.27;13.17;;;22.60;99.90;;;;;;4979746;28;20902;-67
2021/06/22 09:40:25;;;;;;;14.07;12.97;;;22.70;99.90;;;;;;4976914;28;20996;-66
2021/06/22 09:42:54;;;;;;;14.50;13.10;;;22.40;99.90;;;;;;4976515;28;20960;-66
2021/06/22 09:45:22;;;;;;;13.83;12.83;;;22.50;99.90;;;;;;4976113;28;20478;-66
2021/06/22 09:47:50;;;;;;;14.60;13.20;;;22.70;99.90;;;;;;4977024;28;20443;-66
2021/06/22 09:50:39;;;;;;;14.50;13.47;;;22.80;99.90;;;;;;4976544;28;20458;-66
2021/06/22 09:53:26;;;;;;;15.43;14.23;;;22.80;99.90;;;;;;4976861;28;20471;-66
2021/06/22 09:55:53;;;;;;;13.50;12.60;;;23.00;99.90;;;;;;4976213;28;20490;-66
2021/06/22 09:58:36;;;;;;;15.90;13.43;;;23.20;99.90;;;;;;4976427;28;20458;-67
2021/06/22 10:01:03;;;;;;;12.57;11.67;;;23.10;99.90;;;;;;4976356;28;20439;-66
2021/06/22 10:03:37;;;;;;;11.17;10.23;;;23.40;99.90;;;;;;4975492;28;20813;-66
2021/06/22 10:06:07;;;;;;;11.10;10.27;;;23.70;99.90;;;;;;4976311;28;20489;-66
2021/06/22 10:08:53;;;;;;;11.57;10.47;;;24.00;99.90;;;;;;4976261;28;20439;-66
2021/06/22 10:11:34;;;;;;;10.00;9.30;;;24.30;99.90;;;;;;4995063;28;20450;-66
2021/06/22 10:14:03;;;;;;;10.00;9.30;;;24.30;99.90;;;;;;4995441;28;20450;-65
2021/06/22 10:16:32;;;;;;;7.93;7.43;;;24.30;99.90;;;;;;4994089;28;20467;-64
2021/06/22 10:19:01;;;;;;;9.77;9.13;;;24.50;99.90;;;;;;4994406;28;20461;-65
2021/06/22 10:21:28;;;;;;;8.40;7.70;;;24.70;99.90;;;;;;4989016;28;20505;-65
2021/06/22 10:23:56;;;;;;;8.80;8.20;;;24.50;99.90;;;;;;4975749;28;20946;-65
2021/06/22 10:26:25;;;;;;;8.60;7.93;;;24.10;99.90;;;;;;4975657;28;20479;-65
2021/06/22 10:28:52;;;;;;;8.27;7.77;;;24.30;99.90;;;;;;4975777;28;20451;-65
2021/06/22 10:31:20;;;;;;;9.10;8.47;;;24.30;99.90;;;;;;4977957;28;20454;-65
2021/06/22 10:33:47;;;;;;;7.90;7.40;;;24.40;99.90;;;;;;4989506;28;20434;-64
2021/06/22 10:36:23;;;;;;;9.20;8.70;;;24.40;99.90;;;;;;4981553;28;20477;-65
2021/06/22 10:38:52;;;;;;;7.80;7.30;;;24.20;99.90;;;;;;4982317;28;20438;-64
2021/06/22 10:41:20;;;;;;;8.67;8.00;;;24.20;99.90;;;;;;4986833;28;20451;-64
2021/06/22 10:43:48;;;;;;;11.30;10.17;;;24.30;99.90;;;;;;4989083;28;20455;-64
2021/06/22 10:46:17;;;;;;;10.13;9.30;;;24.30;99.90;;;;;;4989060;28;20488;-64
2021/06/22 10:48:45;;;;;;;9.50;8.50;;;24.30;99.90;;;;;;4980242;28;20458;-64
2021/06/22 10:51:47;;;;;;;10.00;9.20;;;24.30;99.90;;;;;;4979355;28;20458;-64
2021/06/22 10:54:54;;;;;;;8.53;7.87;;;24.20;99.90;;;;;;4975425;28;20510;-64
2021/06/22 10:57:54;;;;;;;9.03;8.30;;;24.00;99.90;;;;;;4975345;28;20493;-64
2021/06/22 11:00:21;;;;;;;9.13;8.20;;;23.80;99.90;;;;;;4975181;28;20529;-64
2021/06/22 11:03:01;;;;;;;8.30;7.60;;;23.80;99.90;;;;;;4974877;28;20866;-64
2021/06/22 11:05:29;;;;;;;8.50;7.90;;;23.70;99.90;;;;;;4975039;28;20474;-64
2021/06/22 11:11:20;;;;;;;8.63;8.03;;;23.80;99.90;;;;;;5167271;27;20294;-64
2021/06/22 11:13:51;;;;;;;9.20;8.40;;;23.80;99.90;;;;;;5133932;27;20447;-64
2021/06/22 11:16:26;;;;;;;8.73;8.10;;;23.70;99.90;;;;;;5136549;27;20472;-64
2021/06/22 11:19:09;;;;;;;10.33;9.43;;;23.70;99.90;;;;;;5138581;27;20438;-64
2021/06/22 11:21:38;;;;;;;9.83;9.00;;;23.60;99.90;;;;;;5147784;27;20832;-65
2021/06/22 11:24:07;;;;;;;13.30;10.60;;;23.60;99.90;;;;;;5135191;27;20452;-65
2021/06/22 11:27:06;;;;;;;11.47;10.40;;;23.50;99.90;;;;;;5154134;27;20464;-64
2021/06/22 11:29:50;;;;;;;11.10;10.13;;;23.50;99.90;;;;;;5156289;27;20463;-65
2021/06/22 11:32:36;;;;;;;12.40;11.30;;;23.60;99.90;;;;;;5156511;27;20519;-65
2021/06/22 11:35:11;;;;;;;11.13;10.17;;;23.30;99.90;;;;;;5134641;27;20442;-65
2021/06/22 11:37:38;;;;;;;12.23;11.13;;;23.10;99.90;;;;;;5136042;27;20435;-65
2021/06/22 11:40:08;;;;;;;11.73;10.80;;;23.00;99.90;;;;;;5142584;27;20439;-65
2021/06/22 11:42:39;;;;;;;11.37;10.40;;;22.90;99.90;;;;;;5132789;27;20938;-65
2021/06/22 11:45:23;;;;;;;9.50;8.80;;;22.70;99.90;;;;;;5132134;27;20467;-65
2021/06/22 11:47:56;;;;;;;10.20;9.33;;;22.50;99.90;;;;;;5132412;27;20770;-65
2021/06/22 11:50:34;;;;;;;9.73;8.83;;;22.40;99.90;;;;;;5132510;27;20513;-64
2021/06/22 11:53:04;;;;;;;9.87;9.07;;;22.30;99.90;;;;;;5140285;27;20424;-64
2021/06/22 11:55:43;;;;;;;8.73;7.97;;;22.20;99.90;;;;;;5136784;27;20467;-65
2021/06/22 11:58:34;;;;;;;8.73;8.13;;;22.10;99.90;;;;;;5133548;27;20467;-65
2021/06/22 12:01:05;;;;;;;7.27;6.67;;;22.10;99.90;;;;;;5132828;27;20508;-64
2021/06/22 12:03:33;;;;;;;8.57;7.87;;;22.00;99.90;;;;;;5132138;27;20432;-65
2021/06/22 12:06:12;;;;;;;8.40;7.60;;;21.90;99.90;;;;;;5131769;27;20532;-64
2021/06/22 12:08:40;;;;;;;7.57;6.97;;;21.90;99.90;;;;;;5134300;27;20478;-64
2021/06/22 12:11:07;;;;;;;9.17;8.30;;;21.90;99.90;;;;;;5148360;27;20471;-63
2021/06/22 12:13:39;;;;;;;7.60;7.03;;;21.80;99.90;;;;;;5131822;27;20447;-65
2021/06/22 12:16:18;;;;;;;8.10;7.50;;;21.60;99.90;;;;;;5131419;27;20478;-64
2021/06/22 12:18:45;;;;;;;7.07;6.57;;;21.60;99.90;;;;;;5131493;27;20451;-63
2021/06/22 12:21:12;;;;;;;6.40;5.80;;;21.50;99.90;;;;;;5124755;27;20444;-65
2021/06/22 12:23:41;;;;;;;6.23;5.73;;;21.50;99.90;;;;;;5117212;28;20938;-64
2021/06/22 12:26:08;;;;;;;6.70;5.97;;;21.30;99.90;;;;;;5117763;28;20876;-64
2021/06/22 12:28:37;;;;;;;6.47;5.97;;;21.30;99.90;;;;;;5117555;28;20448;-63
2021/06/22 12:31:06;;;;;;;6.20;5.70;;;21.20;99.90;;;;;;5117405;28;20472;-63
2021/06/22 12:33:38;;;;;;;7.07;6.47;;;21.10;99.90;;;;;;5117361;28;20433;-64
2021/06/22 12:36:07;;;;;;;7.50;6.97;;;21.00;99.90;;;;;;5118456;28;20476;-65
2021/06/22 12:38:34;;;;;;;6.80;6.23;;;20.90;99.90;;;;;;5118720;28;20822;-63
2021/06/22 12:41:03;;;;;;;7.03;6.50;;;20.80;99.90;;;;;;5118055;28;20448;-64
2021/06/22 12:43:47;;;;;;;7.00;6.40;;;20.80;99.90;;;;;;5118525;27;20622;-64
2021/06/22 12:46:15;;;;;;;7.07;6.57;;;20.70;99.90;;;;;;5117827;28;20468;-63
2021/06/22 12:48:43;;;;;;;9.40;7.53;;;20.60;99.90;;;;;;5116852;28;20439;-63
2021/06/22 12:51:11;;;;;;;6.63;6.23;;;20.40;99.90;;;;;;5116786;28;20476;-63
2021/06/22 12:53:38;;;;;;;6.70;6.17;;;20.40;99.90;;;;;;5116912;27;20529;-64
2021/06/22 12:56:10;;;;;;;8.50;7.07;;;20.20;99.90;;;;;;5117031;28;20472;-63
2021/06/22 12:58:49;;;;;;;7.30;6.80;;;20.20;99.90;;;;;;5117575;28;20464;-64
2021/06/22 13:01:31;;;;;;;8.40;6.97;;;20.10;99.90;;;;;;5118224;28;20447;-65
2021/06/22 13:03:58;;;;;;;11.00;9.90;;;20.10;99.90;;;;;;5116666;28;20472;-64
2021/06/22 13:06:27;;;;;;;11.50;10.50;;;20.00;99.90;;;;;;5116403;28;20521;-63
2021/06/22 13:08:56;;;;;;;11.37;10.37;;;19.80;99.90;;;;;;5116432;28;20460;-63
2021/06/22 13:11:28;;;;;;;10.47;9.47;;;19.70;99.90;;;;;;5116375;28;20889;-63
2021/06/22 13:14:08;;;;;;;11.93;10.77;;;19.70;99.90;;;;;;5116943;28;20864;-63
2021/06/22 13:16:35;;;;;;;13.30;11.90;;;19.70;99.90;;;;;;5116471;28;20875;-63
2021/06/22 13:19:05;;;;;;;13.00;11.80;;;19.50;99.90;;;;;;5118101;28;20455;-63
2021/06/22 13:21:43;;;;;;;14.63;13.43;;;19.80;99.90;;;;;;5116607;28;20443;-63
2021/06/22 13:24:10;;;;;;;12.57;11.50;;;20.30;99.90;;;;;;5116475;28;20436;-64
2021/06/22 13:26:39;;;;;;;10.40;9.57;;;20.60;99.90;;;;;;5116716;28;20469;-63
2021/06/22 13:29:07;;;;;;;11.87;10.80;;;20.80;99.90;;;;;;5116481;28;20847;-63
2021/06/22 13:31:35;;;;;;;10.60;9.70;;;20.90;99.90;;;;;;5116456;28;20484;-63
2021/06/22 13:34:05;;;;;;;7.50;6.90;;;20.90;99.90;;;;;;5114902;28;20455;-63
2021/06/22 13:36:32;;;;;;;7.03;6.53;;;21.00;99.90;;;;;;5116409;28;20500;-63
2021/06/22 13:39:11;;;;;;;8.50;7.80;;;21.10;99.90;;;;;;5116298;28;20453;-63
2021/06/22 13:41:46;;;;;;;6.50;6.10;;;21.20;99.90;;;;;;5123250;28;20432;-63
2021/06/22 13:44:15;;;;;;;5.83;5.43;;;21.50;99.90;;;;;;5125617;28;20424;-63
2021/06/22 13:46:41;;;;;;;6.20;5.77;;;21.50;99.90;;;;;;5124783;28;20464;-64
2021/06/22 13:49:09;;;;;;;5.30;5.00;;;21.60;99.90;;;;;;5116670;28;20452;-63
2021/06/22 13:51:36;;;;;;;4.90;4.60;;;21.80;99.90;;;;;;5116992;27;20472;-63
2021/06/22 13:54:08;;;;;;;5.10;4.70;;;21.90;99.90;;;;;;5129444;28;20444;-63
2021/06/22 13:56:36;;;;;;;4.40;4.10;;;22.10;99.90;;;;;;5124704;28;20778;-63
2021/06/22 13:59:04;;;;;;;4.40;4.10;;;22.30;99.90;;;;;;5116468;28;20452;-63
2021/06/22 14:01:32;;;;;;;4.23;3.83;;;22.50;99.90;;;;;;5115667;28;20955;-63
2021/06/22 14:04:00;;;;;;;4.57;4.17;;;22.70;99.90;;;;;;5116512;28;20448;-63
2021/06/22 14:06:28;;;;;;;4.77;4.43;;;22.60;99.90;;;;;;5117160;28;20477;-63
2021/06/22 14:08:55;;;;;;;5.10;4.10;;;22.50;99.90;;;;;;5116194;28;20455;-63
2021/06/22 14:11:23;;;;;;;4.03;3.73;;;22.60;99.90;;;;;;5116239;28;20456;-63
2021/06/22 14:13:51;;;;;;;4.43;3.60;;;22.90;99.90;;;;;;5116700;28;20457;-64
2021/06/22 14:16:18;;;;;;;3.23;3.03;;;23.00;99.90;;;;;;5115960;28;20503;-63
2021/06/22 14:18:46;;;;;;;3.20;3.00;;;23.00;99.90;;;;;;5118563;28;20432;-63
2021/06/22 14:21:14;;;;;;;2.77;2.67;;;23.10;99.90;;;;;;5118179;28;20931;-63
2021/06/22 14:23:42;;;;;;;3.17;2.97;;;23.00;99.90;;;;;;5119254;27;20532;-64
2021/06/22 14:26:09;;;;;;;3.57;2.73;;;23.10;99.90;;;;;;5118878;28;20924;-64
2021/06/22 14:28:36;;;;;;;2.60;2.40;;;23.10;99.90;;;;;;5118431;28;20455;-61
2021/06/22 14:31:03;;;;;;;3.20;2.90;;;23.00;99.90;;;;;;5118707;28;20468;-61
2021/06/22 14:33:30;;;;;;;3.10;2.90;;;23.10;99.90;;;;;;5118975;28;20908;-62
2021/06/22 14:35:59;;;;;;;4.03;3.70;;;23.10;99.90;;;;;;5118624;28;20469;-62
2021/06/22 14:38:26;;;;;;;3.50;3.23;;;23.00;99.90;;;;;;5118712;28;20436;-62
2021/06/22 14:40:53;;;;;;;9.03;3.00;;;22.90;99.90;;;;;;5118037;28;20444;-61
2021/06/22 14:43:20;;;;;;;3.00;2.80;;;23.20;99.90;;;;;;5118954;28;20448;-61
2021/06/22 14:45:47;;;;;;;4.10;3.73;;;23.50;99.90;;;;;;5118845;28;20476;-62
2021/06/22 14:48:14;;;;;;;3.43;3.23;;;23.80;99.90;;;;;;5118292;28;20452;-60